Time;durP1;ratioP1;P1;durP2;ratioP2;P2;SDS_P1;SDS_P2;PMS_P1;PMS_P2;Temp;Humidity;BMP_temperature;BMP_pressure;BME280_temperature;BME280_humidity;BME280_pressure;Samples;Min_cycle;Max_cycle;Signal;HPM_P1;HPM_P2
2022/07/09 00:01:27;;;;;;;2.55;1.90;;;;;;;14.30;100.00;102025.00;6215635;23;20017;-83
2022/07/09 00:03:54;;;;;;;3.83;2.58;;;;;;;14.28;100.00;102027.66;6211109;23;20030;-86
2022/07/09 00:06:21;;;;;;;1.70;1.60;;;;;;;14.25;100.00;102024.16;6190036;23;20028;-84
2022/07/09 00:08:48;;;;;;;2.92;2.13;;;;;;;14.23;100.00;102025.03;6210882;23;20020;-83
2022/07/09 00:11:15;;;;;;;3.20;2.78;;;;;;;14.25;100.00;102022.41;6212582;23;20072;-84
2022/07/09 00:13:43;;;;;;;3.42;1.88;;;;;;;14.27;100.00;102025.03;6208433;23;20012;-84
2022/07/09 00:16:10;;;;;;;2.08;1.98;;;;;;;14.26;100.00;102015.38;6209030;23;20444;-83
2022/07/09 00:18:37;;;;;;;3.13;2.28;;;;;;;14.25;100.00;102014.50;6208452;23;20016;-85
2022/07/09 00:21:04;;;;;;;2.25;2.05;;;;;;;14.23;100.00;102017.13;6181192;23;20024;-85
2022/07/09 00:23:31;;;;;;;6.47;2.42;;;;;;;14.27;100.00;102014.50;6205585;23;20020;-85
2022/07/09 00:25:58;;;;;;;7.93;2.47;;;;;;;14.32;100.00;102012.72;6204430;23;20012;-85
2022/07/09 00:28:25;;;;;;;4.05;2.30;;;;;;;14.36;100.00;102012.69;6206884;23;20020;-82
2022/07/09 00:30:54;;;;;;;4.75;1.80;;;;;;;14.41;100.00;102014.47;6207844;23;20035;-84
2022/07/09 00:33:21;;;;;;;3.60;2.28;;;;;;;14.41;100.00;102017.09;6207465;23;20096;-83
2022/07/09 00:35:47;;;;;;;1.90;1.80;;;;;;;14.41;100.00;102017.97;6204171;23;20033;-84
2022/07/09 00:38:14;;;;;;;2.45;2.28;;;;;;;14.40;100.00;102013.56;6206250;23;20055;-83
2022/07/09 00:40:43;;;;;;;6.20;2.17;;;;;;;14.44;100.00;102014.44;6207798;23;20034;-86
2022/07/09 00:43:18;;;;;;;4.00;2.25;;;;;;;14.45;100.00;102017.06;6207189;23;20128;-84
2022/07/09 00:45:46;;;;;;;2.33;2.10;;;;;;;14.47;100.00;102009.16;6203744;23;20012;-84
2022/07/09 00:48:15;;;;;;;2.63;2.17;;;;;;;14.48;100.00;102009.16;6201686;23;20027;-84
2022/07/09 00:50:44;;;;;;;2.63;2.42;;;;;;;14.51;100.00;102013.53;6202056;23;20024;-85
2022/07/09 00:53:14;;;;;;;4.47;2.40;;;;;;;14.53;100.00;102006.50;6199878;23;20099;-85
2022/07/09 00:55:44;;;;;;;3.83;2.45;;;;;;;14.51;100.00;102000.34;6172281;23;20028;-85
2022/07/09 00:58:13;;;;;;;4.20;2.08;;;;;;;14.51;100.00;102000.34;6200413;23;20040;-83
2022/07/09 01:00:41;;;;;;;4.03;2.28;;;;;;;14.53;100.00;101993.34;6203722;23;20047;-84
2022/07/09 01:03:08;;;;;;;3.53;2.72;;;;;;;14.53;100.00;101998.59;6205534;23;20035;-84
2022/07/09 01:05:36;;;;;;;4.15;2.30;;;;;;;14.53;100.00;101998.59;6203299;23;20100;-84
2022/07/09 01:08:11;;;;;;;3.65;2.22;;;;;;;14.52;100.00;102003.00;6207484;23;20012;-84
2022/07/09 01:10:38;;;;;;;4.13;2.60;;;;;;;14.53;100.00;101998.59;6213145;23;20024;-86
2022/07/09 01:13:05;;;;;;;5.38;2.25;;;;;;;14.52;100.00;101996.84;6214668;23;20055;-85
2022/07/09 01:15:32;;;;;;;7.72;2.90;;;;;;;14.51;100.00;101997.72;6216508;23;20028;-84
2022/07/09 01:17:59;;;;;;;4.40;2.25;;;;;;;14.51;100.00;101998.63;6192234;23;20048;-85
2022/07/09 01:20:28;;;;;;;3.95;2.97;;;;;;;14.50;100.00;101993.34;6213449;23;20024;-85
2022/07/09 01:22:58;;;;;;;4.75;2.58;;;;;;;14.49;100.00;101992.47;6204551;23;20017;-85
2022/07/09 01:25:43;;;;;;;6.70;3.08;;;;;;;14.49;100.00;101987.19;6201339;23;20012;-86
2022/07/09 01:28:10;;;;;;;3.17;2.50;;;;;;;14.47;100.00;101986.34;6207405;23;20020;-83
2022/07/09 01:30:40;;;;;;;6.35;3.00;;;;;;;14.45;100.00;101989.88;6185605;23;20016;-82
2022/07/09 01:33:07;;;;;;;3.45;2.70;;;;;;;14.44;100.00;101981.06;6212316;23;20071;-85
2022/07/09 01:35:34;;;;;;;3.53;2.65;;;;;;;14.45;100.00;101985.47;6185840;23;20040;-83
2022/07/09 01:38:01;;;;;;;5.93;3.47;;;;;;;14.44;100.00;101981.06;6211222;23;20048;-85
2022/07/09 01:40:27;;;;;;;4.93;2.60;;;;;;;14.43;100.00;101973.16;6186247;23;20020;-85
2022/07/09 01:42:54;;;;;;;2.47;2.28;;;;;;;14.41;100.00;101973.19;6212096;23;20020;-82
2022/07/09 01:45:21;;;;;;;4.93;2.88;;;;;;;14.43;100.00;101971.44;6214240;23;20027;-83
2022/07/09 01:47:48;;;;;;;2.83;2.63;;;;;;;14.44;100.00;101973.16;6214906;23;20013;-83
2022/07/09 01:50:15;;;;;;;6.18;3.50;;;;;;;14.44;100.00;101970.53;6210404;23;20017;-84
2022/07/09 01:52:41;;;;;;;4.88;3.08;;;;;;;14.43;100.00;101967.91;6207846;23;20772;-84
2022/07/09 01:55:16;;;;;;;8.13;3.05;;;;;;;14.40;100.00;101960.88;6207706;23;20020;-85
2022/07/09 01:57:43;;;;;;;4.22;2.53;;;;;;;14.39;100.00;101961.75;6208567;23;20017;-83
2022/07/09 02:00:11;;;;;;;6.20;2.90;;;;;;;14.37;100.00;101951.22;6209190;23;20043;-85
2022/07/09 02:02:37;;;;;;;4.40;3.25;;;;;;;14.34;100.00;101953.00;6209215;23;20017;-84
2022/07/09 02:05:05;;;;;;;7.78;3.00;;;;;;;14.25;100.00;101945.13;6203333;23;20628;-84
2022/07/09 02:07:32;;;;;;;5.28;3.10;;;;;;;14.19;100.00;101941.63;6180516;23;20028;-84
2022/07/09 02:09:59;;;;;;;6.07;4.07;;;;;;;14.13;100.00;101938.16;6179553;23;20025;-85
2022/07/09 02:12:27;;;;;;;7.70;3.13;;;;;;;14.04;100.00;101942.56;6203766;23;20016;-83
2022/07/09 02:14:54;;;;;;;9.80;3.45;;;;;;;13.97;100.00;101953.13;6178613;23;20348;-84
2022/07/09 02:17:21;;;;;;;7.82;4.10;;;;;;;13.89;100.00;101950.50;6206887;23;20028;-84
2022/07/09 02:19:47;;;;;;;6.97;3.30;;;;;;;13.81;100.00;101942.63;6205787;23;20031;-82
2022/07/09 02:22:14;;;;;;;5.10;3.45;;;;;;;13.74;100.00;101946.16;6206649;23;20017;-83
2022/07/09 02:24:41;;;;;;;4.97;3.03;;;;;;;13.65;100.00;101947.03;6180099;23;20031;-84
2022/07/09 02:27:08;;;;;;;8.27;3.53;;;;;;;13.56;100.00;101936.53;6206768;23;20482;-85
2022/07/09 02:29:34;;;;;;;7.43;3.15;;;;;;;13.50;100.00;101939.16;6182115;23;20023;-85
2022/07/09 02:32:01;;;;;;;2.97;2.78;;;;;;;13.42;100.00;101931.25;6182448;23;20028;-84
2022/07/09 02:34:28;;;;;;;11.18;4.35;;;;;;;13.42;100.00;101940.91;6205065;23;20036;-84
2022/07/09 02:36:55;;;;;;;4.85;3.17;;;;;;;13.45;100.00;101930.38;6207508;23;20100;-85
2022/07/09 02:39:21;;;;;;;5.95;3.50;;;;;;;13.55;100.00;101927.72;6184098;23;20080;-85
2022/07/09 02:41:48;;;;;;;6.60;3.35;;;;;;;13.69;100.00;101927.72;6208175;23;20081;-85
2022/07/09 02:44:15;;;;;;;6.43;3.35;;;;;;;13.82;100.00;101925.06;6179156;23;20052;-82
2022/07/09 02:46:42;;;;;;;4.28;3.03;;;;;;;13.93;100.00;101925.06;6207145;23;20020;-86
2022/07/09 02:49:11;;;;;;;3.13;2.80;;;;;;;14.01;100.00;101926.75;6206266;23;20079;-83
2022/07/09 02:51:38;;;;;;;5.60;3.22;;;;;;;14.09;100.00;101926.75;6218872;23;20527;-83
2022/07/09 02:54:05;;;;;;;5.55;2.75;;;;;;;14.16;100.00;101928.50;6221412;23;20012;-86
2022/07/09 02:56:32;;;;;;;4.78;2.92;;;;;;;14.20;100.00;101924.97;6224232;23;20063;-85
2022/07/09 02:58:59;;;;;;;8.50;3.47;;;;;;;14.26;100.00;101933.72;6198664;23;20017;-85
2022/07/09 03:01:26;;;;;;;5.22;2.67;;;;;;;14.31;100.00;101931.94;6225828;23;20012;-86
2022/07/09 03:03:58;;;;;;;9.63;4.10;;;;;;;14.37;100.00;101937.19;6212377;23;20013;-85
2022/07/09 03:06:25;;;;;;;4.00;3.13;;;;;;;14.38;100.00;101931.91;6211351;23;20016;-84
2022/07/09 03:09:02;;;;;;;4.35;2.83;;;;;;;14.42;100.00;101935.44;6214794;23;20027;-83
2022/07/09 03:11:29;;;;;;;8.23;3.75;;;;;;;14.46;100.00;101933.66;6187745;23;20074;-84
2022/07/09 03:13:57;;;;;;;5.40;3.13;;;;;;;14.46;100.00;101925.75;6183986;23;20051;-84
2022/07/09 03:16:23;;;;;;;4.07;3.60;;;;;;;14.48;100.00;101921.34;6217039;23;20021;-84
2022/07/09 03:18:52;;;;;;;4.03;3.30;;;;;;;14.49;100.00;101918.69;6192436;23;20013;-85
2022/07/09 03:21:19;;;;;;;6.68;3.22;;;;;;;14.50;100.00;101922.22;6183018;23;20024;-85
2022/07/09 03:23:46;;;;;;;10.43;3.53;;;;;;;14.50;100.00;101932.75;6206765;23;20020;-85
2022/07/09 03:26:13;;;;;;;5.63;3.28;;;;;;;14.48;100.00;101922.19;6209888;23;20016;-84
2022/07/09 03:28:40;;;;;;;5.85;2.85;;;;;;;14.45;100.00;101919.59;6211152;23;20020;-85
2022/07/09 03:31:07;;;;;;;5.05;3.05;;;;;;;14.46;100.00;101923.13;6211973;23;20440;-83
2022/07/09 03:33:34;;;;;;;3.47;3.17;;;;;;;14.48;100.00;101916.94;6213045;23;20020;-84
2022/07/09 03:36:00;;;;;;;5.85;3.63;;;;;;;14.49;100.00;101923.09;6186252;23;20486;-85
2022/07/09 03:38:27;;;;;;;5.20;3.25;;;;;;;14.49;100.00;101912.56;6219257;23;20009;-83
2022/07/09 03:40:54;;;;;;;4.75;2.80;;;;;;;14.49;100.00;101920.47;6214900;23;20472;-86
2022/07/09 03:43:20;;;;;;;5.00;4.60;;;;;;;14.49;100.00;101920.47;6216055;23;20020;-86
2022/07/09 03:45:47;;;;;;;6.38;3.35;;;;;;;14.50;100.00;101917.81;6209955;23;20020;-84
2022/07/09 03:48:14;;;;;;;7.63;3.42;;;;;;;14.56;100.00;101911.63;6210150;23;20023;-85
2022/07/09 03:50:42;;;;;;;4.28;3.67;;;;;;;14.61;100.00;101907.19;6181830;23;20352;-85
2022/07/09 03:53:08;;;;;;;10.85;3.70;;;;;;;14.67;100.00;101907.22;6178728;23;20035;-87
2022/07/09 03:55:35;;;;;;;8.05;3.85;;;;;;;14.70;100.00;101908.94;6177185;23;20058;-84
2022/07/09 03:58:02;;;;;;;6.80;3.30;;;;;;;14.69;100.00;101908.09;6179703;23;20024;-84
2022/07/09 04:00:29;;;;;;;4.63;4.13;;;;;;;14.71;100.00;101906.31;6206434;23;20017;-85
2022/07/09 04:02:56;;;;;;;9.60;4.20;;;;;;;14.72;100.00;101899.28;6181812;23;20404;-85
2022/07/09 04:05:23;;;;;;;7.03;3.67;;;;;;;14.75;100.00;101903.66;6202458;23;20017;-83
2022/07/09 04:07:50;;;;;;;5.90;4.15;;;;;;;14.77;100.00;101897.50;6208008;23;20024;-83
2022/07/09 04:10:17;;;;;;;8.88;3.65;;;;;;;14.79;100.00;101903.63;6179343;23;20024;-85
2022/07/09 04:12:43;;;;;;;5.97;3.33;;;;;;;14.77;100.00;101909.78;6181760;23;20016;-84
2022/07/09 04:15:11;;;;;;;8.35;3.13;;;;;;;14.73;100.00;101903.66;6204687;23;20627;-83
2022/07/09 04:17:39;;;;;;;5.05;3.92;;;;;;;14.67;100.00;101909.84;6208748;23;20460;-83
2022/07/09 04:20:06;;;;;;;7.28;4.13;;;;;;;14.61;100.00;101908.97;6181330;23;20181;-85
2022/07/09 04:22:33;;;;;;;4.28;3.88;;;;;;;14.56;100.00;101898.44;6204165;23;20340;-85
2022/07/09 04:25:00;;;;;;;10.10;4.22;;;;;;;14.57;100.00;101905.47;6181887;23;20359;-85
2022/07/09 04:27:27;;;;;;;7.97;3.78;;;;;;;14.58;100.00;101899.31;6207659;23;20063;-85
2022/07/09 04:29:57;;;;;;;9.98;4.40;;;;;;;14.63;100.00;101900.19;6208775;23;20021;-85
2022/07/09 04:32:24;;;;;;;8.57;3.60;;;;;;;14.63;100.00;101889.63;6207232;23;20199;-85
2022/07/09 04:34:51;;;;;;;7.95;4.78;;;;;;;14.65;100.00;101890.53;6203499;23;20043;-84
2022/07/09 04:37:18;;;;;;;7.43;4.18;;;;;;;14.69;100.00;101886.09;6204668;23;20009;-86
2022/07/09 04:39:45;;;;;;;6.82;4.38;;;;;;;14.73;100.00;101887.84;6205668;23;20024;-85
2022/07/09 04:42:12;;;;;;;4.38;3.72;;;;;;;14.78;100.00;101885.19;6203980;23;20028;-85
2022/07/09 04:44:39;;;;;;;6.80;4.38;;;;;;;14.87;100.00;101891.28;6176521;23;20027;-87
2022/07/09 04:47:06;;;;;;;14.68;5.93;;;;;;;14.96;100.00;101882.41;6207219;23;20100;-86
2022/07/09 04:49:34;;;;;;;9.02;4.90;;;;;;;14.99;100.00;101892.94;6180760;23;20028;-84
2022/07/09 04:52:01;;;;;;;7.78;5.13;;;;;;;15.02;100.00;101876.22;6179684;23;20025;-84
2022/07/09 04:54:28;;;;;;;5.93;4.40;;;;;;;15.04;100.00;101885.88;6206056;23;20017;-87
2022/07/09 04:56:54;;;;;;;9.77;4.65;;;;;;;15.07;100.00;101874.44;6183000;23;20493;-84
2022/07/09 04:59:21;;;;;;;11.73;5.90;;;;;;;15.08;100.00;101876.16;6205357;23;20028;-85
2022/07/09 05:01:49;;;;;;;6.10;4.63;;;;;;;15.07;100.00;101871.78;6184465;23;20054;-84
2022/07/09 05:04:17;;;;;;;4.20;3.75;;;;;;;15.10;100.00;101874.41;6202128;23;20573;-84
2022/07/09 05:06:43;;;;;;;5.70;4.35;;;;;;;15.15;100.00;101869.09;6182141;23;20147;-85
2022/07/09 05:09:10;;;;;;;9.45;5.75;;;;;;;15.22;100.00;101871.63;6186631;23;20024;-86
2022/07/09 05:11:42;;;;;;;9.70;5.65;;;;;;;15.32;100.00;101868.94;6211276;23;20000;-86
2022/07/09 05:14:11;;;;;;;8.48;6.22;;;;;;;15.34;100.00;101870.69;6179518;23;20074;-89
2022/07/09 05:16:44;;;;;;;12.55;5.97;;;;;;;15.31;100.00;101868.06;6204459;23;20025;-87
2022/07/09 05:19:13;;;;;;;9.38;6.07;;;;;;;15.34;100.00;101867.16;6180926;23;20020;-84
2022/07/09 05:21:42;;;;;;;8.35;5.88;;;;;;;15.39;100.00;101860.94;6204764;23;20047;-84
2022/07/09 05:24:09;;;;;;;13.85;7.25;;;;;;;15.51;100.00;101874.91;6204497;23;20027;-85
2022/07/09 05:26:36;;;;;;;9.70;5.93;;;;;;;15.61;100.00;101880.97;6181509;23;20516;-84
2022/07/09 05:29:05;;;;;;;9.75;6.35;;;;;;;15.74;100.00;101879.09;6209331;23;20020;-85
2022/07/09 05:31:31;;;;;;;9.52;6.97;;;;;;;15.89;100.00;101881.56;6189441;23;20028;-83
2022/07/09 05:34:00;;;;;;;7.45;5.72;;;;;;;16.08;100.00;101882.22;6209008;23;20027;-86
2022/07/09 05:36:28;;;;;;;9.43;6.35;;;;;;;16.22;100.00;101882.06;6182688;23;20067;-86
2022/07/09 05:38:56;;;;;;;9.75;6.35;;;;;;;16.29;100.00;101883.72;6205133;23;20486;-84
2022/07/09 05:41:24;;;;;;;8.85;6.03;;;;;;;16.32;100.00;101890.72;6203697;23;20413;-88
2022/07/09 05:43:52;;;;;;;11.30;6.90;;;;;;;16.33;100.00;101890.69;6206216;23;20021;-84
2022/07/09 05:46:19;;;;;;;9.15;6.88;;;;;;;16.32;100.00;101886.34;6183373;23;20031;-84
2022/07/09 05:48:45;;;;;;;8.93;6.72;;;;;;;16.36;100.00;101890.69;6208660;23;20048;-84
2022/07/09 05:51:13;;;;;;;14.57;6.25;;;;;;;16.42;100.00;101888.84;6206111;23;20016;-85
2022/07/09 05:53:40;;;;;;;8.15;6.20;;;;;;;16.44;100.00;101885.28;6182040;23;20040;-85
2022/07/09 05:56:10;;;;;;;10.90;6.38;;;;;;;16.46;100.00;101883.50;6202296;23;20016;-85
2022/07/09 05:58:37;;;;;;;11.27;6.03;;;;;;;16.56;100.00;101881.59;6181241;23;20021;-87
2022/07/09 06:01:06;;;;;;;8.60;5.38;;;;;;;16.70;100.00;101881.41;6208548;23;20017;-84
2022/07/09 06:03:33;;;;;;;9.80;6.47;;;;;;;16.79;100.00;101889.19;6200213;23;20020;-84
2022/07/09 06:06:07;;;;;;;5.38;4.88;;;;;;;16.88;99.75;101882.88;6201938;23;20030;-85
2022/07/09 06:08:34;;;;;;;6.75;5.72;;;;;;;16.90;98.99;101875.84;6177715;23;20020;-88
2022/07/09 06:11:01;;;;;;;9.63;5.35;;;;;;;16.96;98.54;101870.47;6204872;23;20500;-85
2022/07/09 06:13:28;;;;;;;10.27;5.90;;;;;;;17.00;97.12;101863.31;6204186;23;20107;-85
2022/07/09 06:15:55;;;;;;;9.05;4.55;;;;;;;16.99;97.30;101874.81;6208114;23;20071;-84
2022/07/09 06:18:22;;;;;;;6.18;4.25;;;;;;;17.09;97.18;101883.47;6209581;23;20297;-84
2022/07/09 06:20:49;;;;;;;12.70;5.25;;;;;;;17.24;95.65;101880.56;6206910;23;20044;-86
2022/07/09 06:23:16;;;;;;;7.55;3.95;;;;;;;17.40;94.58;101875.00;6182861;23;20339;-86
2022/07/09 06:25:42;;;;;;;8.00;4.65;;;;;;;17.59;92.35;101872.91;6182775;23;20078;-86
2022/07/09 06:28:10;;;;;;;6.43;4.10;;;;;;;17.76;92.19;101864.63;6183773;23;20028;-85
2022/07/09 06:30:38;;;;;;;5.10;4.25;;;;;;;17.90;91.21;101874.94;6185730;23;20029;-86
2022/07/09 06:33:05;;;;;;;6.22;4.15;;;;;;;17.96;89.37;101873.06;6184353;23;20017;-87
2022/07/09 06:35:32;;;;;;;6.10;3.42;;;;;;;17.89;89.20;101873.22;6207067;23;20020;-84
2022/07/09 06:38:00;;;;;;;4.25;2.88;;;;;;;17.86;89.72;101867.06;6183517;23;20071;-84
2022/07/09 06:40:27;;;;;;;5.45;2.92;;;;;;;17.95;89.68;101870.47;6184877;23;20542;-84
2022/07/09 06:42:54;;;;;;;5.82;3.35;;;;;;;18.11;88.69;101871.03;6208402;23;20028;-85
2022/07/09 06:45:21;;;;;;;3.97;2.83;;;;;;;18.19;86.80;101871.72;6183571;23;20020;-86
2022/07/09 06:47:47;;;;;;;4.35;2.75;;;;;;;18.22;86.49;101873.44;6160309;23;20024;-85
2022/07/09 06:50:15;;;;;;;5.78;3.05;;;;;;;18.20;86.52;101870.84;6182829;23;20033;-86
2022/07/09 06:52:44;;;;;;;3.80;1.98;;;;;;;18.17;86.85;101865.59;6182669;23;20464;-84
2022/07/09 06:55:12;;;;;;;3.75;2.25;;;;;;;18.19;86.67;101867.28;6207459;23;20020;-87
2022/07/09 06:57:39;;;;;;;5.13;2.58;;;;;;;18.16;85.36;101859.41;6207920;23;20689;-83
2022/07/09 07:00:07;;;;;;;3.53;1.88;;;;;;;18.08;85.02;101858.72;6210832;23;20021;-86
2022/07/09 07:02:36;;;;;;;4.55;2.42;;;;;;;18.08;85.11;101866.66;6211847;23;20027;-90
2022/07/09 07:05:03;;;;;;;4.32;2.33;;;;;;;18.21;84.87;101861.94;6212228;23;20016;-86
2022/07/09 07:07:30;;;;;;;2.67;2.00;;;;;;;18.37;83.43;101865.16;6187985;23;20013;-87
2022/07/09 07:09:57;;;;;;;3.05;2.83;;;;;;;18.45;82.51;101857.91;6213340;23;20021;-87
2022/07/09 07:12:24;;;;;;;2.25;1.83;;;;;;;18.52;82.14;101855.97;6161026;23;20097;-88
2022/07/09 07:15:04;;;;;;;2.85;1.70;;;;;;;18.57;81.58;101850.59;6214233;23;20024;-85
2022/07/09 07:17:32;;;;;;;3.45;2.28;;;;;;;18.54;81.72;101856.81;6190716;23;20072;-88
2022/07/09 07:19:59;;;;;;;3.97;2.28;;;;;;;18.54;82.01;101850.63;6216583;23;20021;-87
2022/07/09 07:22:26;;;;;;;5.07;2.00;;;;;;;18.57;82.25;101850.59;6211988;23;20027;-85
2022/07/09 07:25:00;;;;;;;5.93;2.38;;;;;;;18.67;81.49;101844.16;6210890;23;20013;-86
2022/07/09 07:27:28;;;;;;;3.97;2.22;;;;;;;18.59;81.13;101846.97;6211574;23;20027;-86
2022/07/09 07:29:55;;;;;;;2.50;1.77;;;;;;;18.50;81.67;101849.84;6193741;23;20021;-86
2022/07/09 07:32:25;;;;;;;2.53;1.52;;;;;;;18.45;81.92;101855.25;6220066;23;20020;-88
2022/07/09 07:34:52;;;;;;;2.95;1.90;;;;;;;18.41;82.34;101842.97;6194204;23;20044;-85
2022/07/09 07:37:20;;;;;;;3.30;2.83;;;;;;;18.42;82.01;101846.47;6216033;23;20044;-89
2022/07/09 07:39:47;;;;;;;2.78;2.58;;;;;;;18.40;82.22;101845.66;6217772;23;20013;-90
2022/07/09 07:42:24;;;;;;;2.45;1.75;;;;;;;18.45;82.32;101844.66;6219036;23;20027;-87
2022/07/09 07:44:54;;;;;;;2.58;1.85;;;;;;;18.62;81.73;101846.03;6194572;23;20043;-85
2022/07/09 07:47:21;;;;;;;4.32;2.40;;;;;;;18.90;79.76;101837.44;6195860;23;20043;-87
2022/07/09 07:49:51;;;;;;;1.42;1.23;;;;;;;19.16;78.81;101835.00;6193055;23;20016;-88
2022/07/09 07:52:27;;;;;;;4.07;1.40;;;;;;;19.34;77.22;101830.09;6217112;23;20024;-89
2022/07/09 07:55:05;;;;;;;3.20;1.75;;;;;;;19.37;76.81;101835.31;6218182;23;20024;-88
2022/07/09 07:57:33;;;;;;;5.95;1.85;;;;;;;19.48;76.48;101829.75;6225274;23;20021;-90
2022/07/09 08:00:00;;;;;;;2.22;1.50;;;;;;;19.74;75.15;101829.00;6202975;23;20101;-87
2022/07/09 08:02:28;;;;;;;3.03;1.52;;;;;;;19.97;74.10;101827.47;6195664;23;20028;-89
2022/07/09 08:07:39;;;;;;;1.40;1.30;;;;;;;19.91;73.61;101830.34;6222074;23;20048;-86
2022/07/09 08:10:07;;;;;;;2.42;1.45;;;;;;;19.79;73.02;101824.44;6201320;23;20036;-88
2022/07/09 08:12:34;;;;;;;2.67;1.65;;;;;;;19.59;72.90;101824.13;6205089;23;20047;-87
2022/07/09 08:15:08;;;;;;;1.48;1.38;;;;;;;19.32;74.16;101821.28;6229069;23;20036;-90
2022/07/09 08:17:35;;;;;;;3.90;1.90;;;;;;;19.22;74.82;101828.66;6201770;23;20035;-88
2022/07/09 08:20:03;;;;;;;2.50;1.50;;;;;;;19.21;75.30;101820.75;6223116;23;20223;-85
2022/07/09 08:22:30;;;;;;;3.58;1.65;;;;;;;19.19;75.21;101826.09;6218798;23;20530;-87
2022/07/09 08:24:57;;;;;;;3.15;2.42;;;;;;;19.11;75.80;101825.41;6215948;23;20032;-85
2022/07/09 08:27:26;;;;;;;1.48;1.40;;;;;;;19.10;76.21;101821.00;6214950;23;20027;-85
2022/07/09 08:29:53;;;;;;;1.20;1.13;;;;;;;19.16;75.18;101821.72;6217257;23;20028;-84
2022/07/09 08:32:20;;;;;;;3.80;1.52;;;;;;;19.16;75.26;101811.13;6191870;23;20109;-86
2022/07/09 08:34:47;;;;;;;2.90;1.50;;;;;;;19.25;74.97;101812.63;6213652;23;20013;-88
2022/07/09 08:37:14;;;;;;;6.05;1.60;;;;;;;19.30;74.40;101824.00;6215020;23;20070;-87
2022/07/09 08:39:41;;;;;;;2.72;1.90;;;;;;;19.30;74.43;101818.69;6214550;23;20016;-85
2022/07/09 08:42:11;;;;;;;11.02;2.20;;;;;;;19.32;74.40;101816.00;6167557;23;20021;-87
2022/07/09 08:44:47;;;;;;;3.40;1.92;;;;;;;19.38;73.79;101826.44;6198597;23;20047;-84
2022/07/09 08:47:21;;;;;;;2.35;1.73;;;;;;;19.47;73.21;101822.69;6220125;23;20060;-86
2022/07/09 08:49:49;;;;;;;5.38;1.98;;;;;;;19.53;73.00;101817.19;6197568;23;20108;-91
2022/07/09 08:52:16;;;;;;;3.95;1.60;;;;;;;19.65;72.23;101810.69;6224290;22;20028;-83
2022/07/09 08:54:45;;;;;;;5.95;1.30;;;;;;;19.69;71.24;101814.13;6203087;23;20035;-83
2022/07/09 08:57:14;;;;;;;7.47;1.77;;;;;;;19.65;70.67;101816.00;6179446;23;20021;-82
2022/07/09 08:59:40;;;;;;;2.58;1.25;;;;;;;19.79;70.17;101818.22;6182223;23;20522;-81
2022/07/09 09:02:09;;;;;;;1.40;1.35;;;;;;;20.01;69.09;101823.81;6192376;23;20457;-83
2022/07/09 09:04:39;;;;;;;4.22;1.73;;;;;;;20.18;68.27;101815.34;6153407;23;20108;-81
2022/07/09 09:07:33;;;;;;;2.15;1.13;;;;;;;20.45;66.33;101821.56;6129814;23;20032;-80
2022/07/09 09:09:59;;;;;;;1.42;1.27;;;;;;;20.58;67.13;101813.22;6152054;23;20024;-81
2022/07/09 09:12:29;;;;;;;2.60;1.20;;;;;;;20.74;66.21;101800.28;6153352;23;20025;-82
2022/07/09 09:14:56;;;;;;;1.38;1.25;;;;;;;20.80;66.05;101798.28;6178384;23;20021;-84
2022/07/09 09:17:27;;;;;;;3.72;1.40;;;;;;;20.86;65.44;101791.91;6153523;23;20396;-82
2022/07/09 09:19:53;;;;;;;2.30;1.58;;;;;;;20.76;65.66;101798.47;6130393;23;20021;-82
2022/07/09 09:22:23;;;;;;;2.90;1.40;;;;;;;20.67;65.66;101800.47;6154485;23;20028;-81
2022/07/09 09:24:53;;;;;;;4.45;1.73;;;;;;;20.61;66.08;101802.47;6152430;23;20407;-81
2022/07/09 09:27:30;;;;;;;1.92;1.20;;;;;;;20.56;65.96;101799.97;6155767;23;20059;-82
2022/07/09 09:30:00;;;;;;;1.83;1.50;;;;;;;20.62;66.18;101796.22;6111041;23;20053;-83
2022/07/09 09:32:28;;;;;;;3.78;1.08;;;;;;;21.13;64.64;101792.75;6158866;23;20021;-82
2022/07/09 09:35:04;;;;;;;2.58;1.10;;;;;;;22.81;58.33;101789.91;6181450;23;20024;-85
2022/07/09 09:37:31;;;;;;;2.72;0.80;;;;;;;24.45;53.20;101779.81;6186023;23;20025;-85
2022/07/09 09:39:58;;;;;;;1.48;1.48;;;;;;;25.13;51.13;101783.59;6185099;23;20017;-81
2022/07/09 09:42:26;;;;;;;2.75;1.42;;;;;;;25.53;50.09;101782.34;6127721;23;20020;-82
2022/07/09 09:44:58;;;;;;;2.25;1.38;;;;;;;25.33;50.18;101782.50;6153436;23;20108;-82
2022/07/09 09:47:25;;;;;;;1.65;0.65;;;;;;;24.80;50.75;101787.94;6178526;23;20029;-82
2022/07/09 09:49:52;;;;;;;1.38;0.90;;;;;;;24.81;49.86;101778.97;6152425;23;20025;-82
2022/07/09 09:52:20;;;;;;;1.38;1.08;;;;;;;24.91;49.92;101787.38;6176293;23;20504;-82
2022/07/09 09:54:49;;;;;;;2.22;0.82;;;;;;;25.30;49.01;101778.19;6149126;23;20095;-81
2022/07/09 09:57:16;;;;;;;2.38;1.33;;;;;;;25.26;47.97;101776.63;6151194;23;20144;-83
2022/07/09 09:59:45;;;;;;;2.03;0.65;;;;;;;25.04;48.45;101790.28;6178693;23;20092;-82
2022/07/09 10:02:12;;;;;;;1.25;1.00;;;;;;;24.90;48.50;101781.16;6151726;23;20017;-83
2022/07/09 10:04:44;;;;;;;1.25;0.95;;;;;;;24.61;49.29;101782.59;6150316;23;20024;-82
2022/07/09 10:07:14;;;;;;;3.42;1.08;;;;;;;23.92;49.63;101790.38;6151867;23;20048;-82
2022/07/09 10:09:41;;;;;;;2.15;0.90;;;;;;;23.41;51.34;101782.00;6174015;23;20075;-82
2022/07/09 10:12:09;;;;;;;0.80;0.52;;;;;;;23.08;52.63;101785.19;6173250;23;20313;-84
2022/07/09 10:14:43;;;;;;;1.10;1.10;;;;;;;22.95;52.87;101786.66;6173229;23;20878;-82
2022/07/09 10:17:15;;;;;;;0.98;0.70;;;;;;;23.04;52.68;101777.41;6178121;23;20108;-82
2022/07/09 10:20:12;;;;;;;1.38;0.70;;;;;;;23.20;51.85;101782.94;6176190;23;20021;-82
2022/07/09 10:22:41;;;;;;;1.50;0.90;;;;;;;23.87;51.25;101779.00;6174280;23;20074;-84
2022/07/09 10:25:10;;;;;;;1.85;0.90;;;;;;;25.32;48.42;101764.69;6149954;23;20028;-81
2022/07/09 10:27:46;;;;;;;1.95;0.95;;;;;;;27.62;43.09;101769.38;6151078;23;20035;-83
2022/07/09 10:30:26;;;;;;;1.73;1.10;;;;;;;29.41;38.35;101767.34;6151954;23;20020;-82
2022/07/09 10:33:09;;;;;;;1.80;0.90;;;;;;;29.95;37.00;101766.19;6178316;23;20033;-81
2022/07/09 10:35:45;;;;;;;1.70;1.60;;;;;;;29.12;38.49;101767.56;6173701;23;20342;-83
2022/07/09 10:38:13;;;;;;;0.70;0.70;;;;;;;28.71;39.53;101761.38;6175246;23;20016;-83
2022/07/09 10:40:48;;;;;;;0.73;0.63;;;;;;;28.97;38.38;101756.88;6148448;23;20056;-82
2022/07/09 10:43:17;;;;;;;2.83;1.25;;;;;;;28.75;38.55;101756.63;6172573;23;20024;-84
2022/07/09 10:45:48;;;;;;;0.85;0.65;;;;;;;29.32;36.68;101758.06;6172475;23;20024;-81
2022/07/09 10:48:16;;;;;;;1.60;1.08;;;;;;;28.79;37.66;101756.31;6125622;23;20032;-85
2022/07/09 10:50:45;;;;;;;1.40;0.55;;;;;;;28.11;38.20;101762.66;6174877;23;20351;-83
2022/07/09 10:53:18;;;;;;;1.75;0.65;;;;;;;27.40;39.09;101754.59;6149234;23;20025;-81
2022/07/09 10:55:45;;;;;;;1.02;0.57;;;;;;;26.93;39.69;101747.63;6148658;23;20028;-81
2022/07/09 10:58:22;;;;;;;0.95;0.40;;;;;;;26.68;39.12;101752.59;6175299;23;20055;-83
2022/07/09 11:00:59;;;;;;;0.82;0.55;;;;;;;27.79;37.95;101750.31;6176864;23;20044;-82
2022/07/09 11:03:28;;;;;;;2.80;0.50;;;;;;;29.29;36.31;101736.72;6175240;23;20084;-83
2022/07/09 11:05:56;;;;;;;0.85;0.50;;;;;;;30.62;34.42;101737.78;6172985;23;20406;-83
2022/07/09 11:08:23;;;;;;;1.95;0.60;;;;;;;31.34;33.24;101732.13;6175507;23;20025;-82
2022/07/09 11:10:52;;;;;;;0.50;0.50;;;;;;;31.21;32.66;101728.69;6149881;23;20033;-83
2022/07/09 11:13:26;;;;;;;0.65;0.60;;;;;;;30.69;33.42;101722.84;6176843;23;20025;-82
2022/07/09 11:16:00;;;;;;;1.20;0.50;;;;;;;30.02;33.92;101724.25;6177154;23;20060;-85
2022/07/09 11:18:28;;;;;;;1.42;0.47;;;;;;;30.16;33.95;101723.22;6153035;23;20410;-83
2022/07/09 11:20:55;;;;;;;0.55;0.47;;;;;;;30.23;33.63;101719.06;6152743;23;20029;-81
2022/07/09 11:23:22;;;;;;;1.13;0.63;;;;;;;30.09;33.46;101714.72;6174489;23;20047;-82
2022/07/09 11:25:49;;;;;;;1.65;0.45;;;;;;;29.60;34.17;101716.50;6149175;23;20025;-81
2022/07/09 11:28:21;;;;;;;0.80;0.40;;;;;;;29.44;33.45;101713.19;6176841;23;20044;-82